North Creek, NY (12853)

3:26 AM EDT on April 30, 2017 (GMT -0400)
Old River Road | | Change Station

Elev 1030 ft 43.71 °N, 73.99 °W | Updated 2 seconds ago

Partly Cloudy
Partly Cloudy
39.4 °F
Feels Like 39 °F
N
0.0
Wind Variable Wind from North
Gusts 1.0 mph

Today
High -- | Low -- °F
--% Chance of Precip.
Yesterday
High -- | Low -- °F
Precip. -- in
Pressure 30.26 in
Visibility 10.0 miles
Clouds Clear
Windchill 39 °F
Dew Point 28 °F
Humidity 64%
Rainfall 0.00 in
Snow Depth Not available.
5:49 AM 7:57 PM
Waxing Crescent, 20% visible
METAR KGFL 300653Z AUTO 05009KT 10SM CLR 07/M03 A3025 RMK AO2 SLP246 T00671028 $
Pressure 30.26 in
Visibility 10.0 miles
Clouds Clear
Windchill 39 °F
Dew Point 28 °F
Humidity 64%
Rainfall 0.00 in
Snow Depth Not available.
5:49 AM 7:57 PM
Waxing Crescent, 20% visible
METAR KGFL 300653Z AUTO 05009KT 10SM CLR 07/M03 A3025 RMK AO2 SLP246 T00671028 $

Get Severe Weather Alerts

Thanks for signing up!

Be on the lookout for a verification email in your inbox.

You'll start receiving the daily forecast at 8 AM.

×

10-Day Weather Forecast

Almanac

Astronomy

Apr. 30, 2017 Rise Set
Actual Time
Civil Twilight
Nautical Twilight
Astronomical Twilight
Moon
Length of Visible Light
Length of Day
Tomorrow will be .
, % of the Moon is Illuminated

Today's Extremes

State Highs State Lows

Community

WunderPhotos

WunderBlog® & News

Nearby

Air Quality

  Air Quality AQ Index Pollutant
Not available.

Snow Depth

Station Depth Elevation

Earthquake Activity

City Distance Mag. Time & Date
Minimum magnitude displayed is 2.5.

Coastal Water Temperatures

Place Temperature

Stations

Nearby Weather Stations

Station Location Temp. Windchill Dew Point Humidity Wind Precip. Elev Updated Type
                   

Watches & Warnings

There are currently no watches in effect.